createdAt,value
2022-09-20T00:01:32.610Z,100969.09
2022-09-20T00:04:05.512Z,100970.28
2022-09-20T00:06:34.149Z,100965.06
2022-09-20T00:09:02.904Z,100969.34
2022-09-20T00:11:34.146Z,100973.41
2022-09-20T00:14:03.626Z,100966.38
2022-09-20T00:16:39.466Z,100974.22
2022-09-20T00:19:07.576Z,100976.94
2022-09-20T00:21:37.617Z,100973.88
2022-09-20T00:24:05.986Z,100971.69
2022-09-20T00:26:33.625Z,100971.22
2022-09-20T00:29:01.601Z,100968.19
2022-09-20T00:31:28.648Z,100973.63
2022-09-20T00:34:16.829Z,100968.41
2022-09-20T00:36:44.811Z,100973.59
2022-09-20T00:39:15.566Z,100972.94
2022-09-20T00:41:43.129Z,100980.41
2022-09-20T00:45:24.517Z,100975.47
2022-09-20T00:48:15.872Z,100977.97
2022-09-20T00:50:53.211Z,100979.31
2022-09-20T00:53:31.828Z,100980.16
2022-09-20T00:56:20.213Z,100983.78
2022-09-20T00:59:19.711Z,100986.09
2022-09-20T01:02:03.055Z,100979.34
2022-09-20T01:04:30.710Z,100989.28
2022-09-20T01:07:02.768Z,100987.78
2022-09-20T01:09:29.713Z,100985.16
2022-09-20T01:11:58.282Z,100984.81
2022-09-20T01:14:27.024Z,100982.19
2022-09-20T01:16:57.925Z,100981.25
2022-09-20T01:20:09.096Z,100980.84
2022-09-20T01:23:03.530Z,100979.16
2022-09-20T01:26:16.642Z,100977.31
2022-09-20T01:28:47.938Z,100980.13
2022-09-20T01:31:33.396Z,100978.19
2022-09-20T01:34:20.607Z,100977.44
2022-09-20T01:37:06.232Z,100976.91
2022-09-20T01:40:05.785Z,100980.50
2022-09-20T01:42:38.326Z,100979.66
2022-09-20T01:45:27.805Z,100978.09
2022-09-20T01:48:13.021Z,100983.13
2022-09-20T01:51:38.228Z,100985.91
2022-09-20T01:55:16.576Z,100986.19
2022-09-20T01:58:37.628Z,100987.75
2022-09-20T02:02:03.752Z,100991.69
2022-09-20T02:05:10.446Z,100988.34
2022-09-20T02:08:41.326Z,100984.34
2022-09-20T02:11:21.930Z,100993.91
2022-09-20T02:14:06.299Z,100992.81
2022-09-20T02:16:50.488Z,100997.28
2022-09-20T02:19:50.390Z,101000.69
2022-09-20T02:22:41.780Z,101000.81
2022-09-20T02:25:23.821Z,101006.03
2022-09-20T02:28:22.254Z,101001.75
2022-09-20T02:31:48.870Z,101007.78
2022-09-20T02:35:17.254Z,101010.19
2022-09-20T02:38:20.640Z,101013.16
2022-09-20T02:41:21.857Z,101011.59
2022-09-20T02:44:07.263Z,101015.22
2022-09-20T02:47:17.118Z,101018.47
2022-09-20T02:50:15.252Z,101020.50
2022-09-20T02:53:37.850Z,101019.25
2022-09-20T02:56:41.361Z,101020.41
2022-09-20T03:00:05.124Z,101020.72
2022-09-20T03:03:31.284Z,101025.69
2022-09-20T03:06:39.858Z,101030.81
2022-09-20T03:10:07.578Z,101020.88
2022-09-20T03:13:04.728Z,101033.34
2022-09-20T03:15:58.444Z,101031.00
2022-09-20T03:19:18.926Z,101031.41
2022-09-20T03:23:01.724Z,101030.19
2022-09-20T03:26:16.058Z,101030.81
2022-09-20T03:30:17.651Z,101030.72
2022-09-20T03:33:24.695Z,101034.72
2022-09-20T03:37:01.449Z,101032.34
2022-09-20T03:40:17.420Z,101033.63
2022-09-20T03:42:52.711Z,101039.47
2022-09-20T03:45:57.907Z,101039.66
2022-09-20T03:48:37.414Z,101039.56
2022-09-20T03:51:47.386Z,101047.03
2022-09-20T03:54:46.903Z,101046.94
2022-09-20T03:57:46.406Z,101043.50
2022-09-20T04:01:28.015Z,101043.50
2022-09-20T04:04:19.649Z,101054.06
2022-09-20T04:07:34.343Z,101055.47
2022-09-20T04:10:30.029Z,101065.28
2022-09-20T04:13:40.038Z,101060.38
2022-09-20T04:16:51.252Z,101061.09
2022-09-20T04:19:41.174Z,101060.88
2022-09-20T04:22:09.314Z,101061.41
2022-09-20T04:25:20.345Z,101069.09
2022-09-20T04:28:53.545Z,101066.84
2022-09-20T04:31:55.496Z,101065.22
2022-09-20T04:34:51.574Z,101059.63
2022-09-20T04:37:32.971Z,101068.75
2022-09-20T04:40:26.159Z,101064.38
2022-09-20T04:43:51.109Z,101068.84
2022-09-20T04:47:00.955Z,101071.91
2022-09-20T04:50:06.126Z,101072.31
2022-09-20T04:53:18.964Z,101068.38
2022-09-20T04:56:50.409Z,101074.69
2022-09-20T05:00:13.831Z,101080.22
2022-09-20T05:03:23.091Z,101071.81
2022-09-20T05:06:26.966Z,101079.38
2022-09-20T05:09:43.993Z,101083.34
2022-09-20T05:13:00.324Z,101086.91
2022-09-20T05:15:47.944Z,101092.94
2022-09-20T05:19:16.729Z,101092.28
2022-09-20T05:22:48.505Z,101102.53
2022-09-20T05:25:48.098Z,101093.78
2022-09-20T05:29:05.018Z,101101.88
2022-09-20T05:32:14.773Z,101105.22
2022-09-20T05:35:36.537Z,101102.97
2022-09-20T05:38:40.968Z,101106.09
2022-09-20T05:41:56.986Z,101113.94
2022-09-20T05:45:18.130Z,101112.06
2022-09-20T05:48:15.236Z,101118.84
2022-09-20T05:51:20.574Z,101117.59
2022-09-20T05:54:39.123Z,101129.44
2022-09-20T05:57:35.541Z,101134.19
2022-09-20T06:00:29.856Z,101136.09
2022-09-20T06:03:30.559Z,101131.06
2022-09-20T06:06:32.806Z,101143.69
2022-09-20T06:09:43.422Z,101143.00
2022-09-20T06:12:52.842Z,101143.03
2022-09-20T06:15:52.132Z,101142.25
2022-09-20T06:18:29.298Z,101146.47
2022-09-20T06:21:27.167Z,101146.69
2022-09-20T06:24:00.872Z,101145.09
2022-09-20T06:26:36.844Z,101154.59
2022-09-20T06:29:11.576Z,101155.09
2022-09-20T06:31:38.567Z,101160.00
2022-09-20T06:34:14.742Z,101147.22
2022-09-20T06:37:10.354Z,101164.03
2022-09-20T06:40:20.008Z,101159.84
2022-09-20T06:42:47.628Z,101163.47
2022-09-20T06:45:14.652Z,101160.38
2022-09-20T06:47:41.876Z,101165.50
2022-09-20T06:50:17.117Z,101168.72
2022-09-20T06:52:45.408Z,101168.00
2022-09-20T06:55:29.019Z,101173.84
2022-09-20T06:57:56.771Z,101174.81
2022-09-20T07:00:24.478Z,101165.69
2022-09-20T07:02:51.448Z,101176.16
2022-09-20T07:05:21.935Z,101178.69
2022-09-20T07:07:49.538Z,101177.97
2022-09-20T07:10:16.883Z,101181.19
2022-09-20T07:12:43.825Z,101182.56
2022-09-20T07:15:14.972Z,101184.75
2022-09-20T07:17:45.654Z,101190.81
2022-09-20T07:20:14.149Z,101186.94
2022-09-20T07:22:42.731Z,101186.81
2022-09-20T07:25:09.914Z,101198.88
2022-09-20T07:27:36.889Z,101198.56
2022-09-20T07:30:05.356Z,101195.56
2022-09-20T07:32:32.483Z,101201.88
2022-09-20T07:34:59.478Z,101202.97
2022-09-20T07:37:26.440Z,101208.19
2022-09-20T07:39:53.470Z,101207.38
2022-09-20T07:42:20.419Z,101205.03
2022-09-20T07:44:47.558Z,101210.28
2022-09-20T07:47:15.060Z,101213.28
2022-09-20T07:49:42.019Z,101209.94
2022-09-20T07:52:11.144Z,101210.13
2022-09-20T07:54:38.585Z,101209.03
2022-09-20T07:57:05.742Z,101214.25
2022-09-20T07:59:32.706Z,101210.81
2022-09-20T08:02:00.656Z,101219.78
2022-09-20T08:04:27.732Z,101217.72
2022-09-20T08:06:54.694Z,101224.69
2022-09-20T08:09:23.104Z,101231.44
2022-09-20T08:11:50.201Z,101225.44
2022-09-20T08:14:18.340Z,101229.44
2022-09-20T08:16:48.714Z,101231.25
2022-09-20T08:19:23.032Z,101234.44
2022-09-20T08:21:53.901Z,101231.69
2022-09-20T08:24:21.291Z,101232.81
2022-09-20T08:26:48.625Z,101226.09
2022-09-20T08:29:15.673Z,101243.16
2022-09-20T08:31:43.270Z,101238.00
2022-09-20T08:34:14.801Z,101235.72
2022-09-20T08:36:50.066Z,101238.59
2022-09-20T08:42:43.646Z,101237.75
2022-09-20T08:45:33.844Z,101247.88
2022-09-20T08:48:06.340Z,101243.44
2022-09-20T08:50:34.671Z,101242.69
2022-09-20T08:53:05.685Z,101245.22
2022-09-20T08:55:37.521Z,101248.38
2022-09-20T08:58:08.436Z,101244.03
2022-09-20T09:00:38.986Z,101242.38
2022-09-20T09:03:14.294Z,101247.06
2022-09-20T09:05:46.604Z,101246.81
2022-09-20T09:08:27.408Z,101250.66
2022-09-20T09:11:00.038Z,101254.94
2022-09-20T09:14:35.384Z,101253.28
2022-09-20T09:17:02.366Z,101242.53
2022-09-20T09:19:51.274Z,101249.09
2022-09-20T09:22:49.715Z,101248.50
2022-09-20T09:25:32.280Z,101244.97
2022-09-20T09:28:07.272Z,101251.63
2022-09-20T09:30:42.698Z,101251.66
2022-09-20T09:33:30.966Z,101244.13
2022-09-20T09:36:16.744Z,101239.97
2022-09-20T09:38:46.303Z,101240.78
2022-09-20T09:41:33.284Z,101245.00
2022-09-20T09:44:09.886Z,101239.88
2022-09-20T09:46:42.298Z,101243.03
2022-09-20T09:49:17.150Z,101241.91
2022-09-20T09:52:24.270Z,101238.78
2022-09-20T09:55:02.765Z,101221.78
2022-09-20T09:58:23.828Z,101230.00
2022-09-20T10:00:54.054Z,101234.06
2022-09-20T10:04:17.175Z,101230.81
2022-09-20T10:07:37.611Z,101235.38
2022-09-20T10:10:32.447Z,101240.53
2022-09-20T10:13:42.066Z,101242.03
2022-09-20T10:16:32.749Z,101248.78
2022-09-20T10:19:22.686Z,101241.53
2022-09-20T10:23:21.434Z,101251.47
2022-09-20T10:26:21.620Z,101256.56
2022-09-20T10:29:37.332Z,101249.81
2022-09-20T10:33:15.027Z,101250.09
2022-09-20T10:36:29.738Z,101251.34
2022-09-20T10:39:26.249Z,101242.75
2022-09-20T10:42:57.583Z,101256.53
2022-09-20T10:46:14.112Z,101263.13
2022-09-20T10:49:03.912Z,101268.78
2022-09-20T10:52:21.090Z,101267.13
2022-09-20T10:55:26.618Z,101276.31
2022-09-20T10:59:07.699Z,101284.25
2022-09-20T11:02:04.239Z,101278.69
2022-09-20T11:05:15.127Z,101279.78
2022-09-20T11:08:15.303Z,101285.16
2022-09-20T11:11:14.130Z,101280.28
2022-09-20T11:14:16.081Z,101282.78
2022-09-20T11:17:19.373Z,101284.97
2022-09-20T11:20:14.165Z,101279.19
2022-09-20T11:23:10.257Z,101287.81
2022-09-20T11:26:07.494Z,101293.28
2022-09-20T11:28:40.865Z,101299.50
2022-09-20T11:31:35.464Z,101306.00
2022-09-20T11:34:32.725Z,101303.56
2022-09-20T11:37:03.372Z,101308.13
2022-09-20T11:39:55.538Z,101312.88
2022-09-20T11:42:35.951Z,101311.13
2022-09-20T11:45:04.524Z,101308.38
2022-09-20T11:47:56.219Z,101315.59
2022-09-20T11:51:26.025Z,101323.44
2022-09-20T11:54:30.006Z,101320.03
2022-09-20T11:57:00.581Z,101320.72
2022-09-20T11:59:42.153Z,101332.97
2022-09-20T12:02:40.747Z,101326.00
2022-09-20T12:05:33.580Z,101319.13
2022-09-20T12:08:06.919Z,101325.59
2022-09-20T12:10:39.744Z,101325.13
2022-09-20T12:13:24.424Z,101322.50
2022-09-20T12:16:06.195Z,101322.50
2022-09-20T12:18:35.858Z,101318.16
2022-09-20T12:21:17.357Z,101326.94
2022-09-20T12:23:57.928Z,101320.59
2022-09-20T12:26:27.438Z,101325.44
2022-09-20T12:29:02.383Z,101326.66
2022-09-20T12:31:32.516Z,101323.25
2022-09-20T12:34:10.833Z,101321.69
2022-09-20T12:36:53.895Z,101319.50
2022-09-20T12:39:30.005Z,101308.34
2022-09-20T12:42:12.604Z,101316.66
2022-09-20T12:44:49.166Z,101315.59
2022-09-20T12:47:30.482Z,101312.41
2022-09-20T12:50:19.230Z,101318.47
2022-09-20T12:52:57.971Z,101316.66
2022-09-20T12:55:45.751Z,101319.75
2022-09-20T12:58:12.640Z,101315.88
2022-09-20T13:00:59.254Z,101316.66
2022-09-20T13:03:44.053Z,101322.03
2022-09-20T13:06:20.066Z,101320.13
2022-09-20T13:09:09.009Z,101331.91
2022-09-20T13:11:56.899Z,101337.97
2022-09-20T13:14:34.058Z,101343.00
2022-09-20T13:17:18.510Z,101344.59
2022-09-20T13:19:52.174Z,101345.84
2022-09-20T13:22:43.464Z,101345.16
2022-09-20T13:25:21.370Z,101340.34
2022-09-20T13:28:24.296Z,101359.00
2022-09-20T13:31:11.282Z,101357.84
2022-09-20T13:33:38.373Z,101373.31
2022-09-20T13:36:08.723Z,101370.91
2022-09-20T13:38:38.333Z,101374.38
2022-09-20T13:41:11.769Z,101375.22
2022-09-20T13:43:49.997Z,101374.59
2022-09-20T13:46:31.362Z,101372.34
2022-09-20T13:49:21.471Z,101368.84
2022-09-20T13:51:49.755Z,101371.63
2022-09-20T13:54:32.671Z,101375.19
2022-09-20T13:57:07.886Z,101368.53
2022-09-20T13:59:44.911Z,101376.25
2022-09-20T14:02:30.910Z,101378.19
2022-09-20T14:05:04.370Z,101382.13
2022-09-20T14:07:32.243Z,101373.31
2022-09-20T14:10:00.263Z,101373.31
2022-09-20T14:12:28.492Z,101379.84
2022-09-20T14:14:55.904Z,101383.31
2022-09-20T14:17:24.542Z,101383.94
2022-09-20T14:19:55.014Z,101394.00
2022-09-20T14:22:28.953Z,101380.66
2022-09-20T14:25:14.007Z,101385.50
2022-09-20T14:27:41.034Z,101378.19
2022-09-20T14:30:35.199Z,101384.84
2022-09-20T14:33:07.191Z,101385.50
2022-09-20T14:35:34.449Z,101386.69
2022-09-20T14:38:11.647Z,101383.19
2022-09-20T14:40:45.523Z,101389.06
2022-09-20T14:43:33.823Z,101393.41
2022-09-20T14:46:29.628Z,101392.53
2022-09-20T14:49:25.519Z,101384.38
2022-09-20T14:51:54.424Z,101390.09
2022-09-20T14:54:30.680Z,101398.03
2022-09-20T14:56:58.998Z,101404.16
2022-09-20T14:59:35.380Z,101398.38
2022-09-20T15:02:21.409Z,101400.63
2022-09-20T15:05:00.196Z,101410.03
2022-09-20T15:07:27.421Z,101416.84
2022-09-20T15:09:54.369Z,101420.63
2022-09-20T15:12:21.817Z,101417.56
2022-09-20T15:14:49.301Z,101417.88
2022-09-20T15:17:24.406Z,101417.34
2022-09-20T15:19:51.643Z,101416.03
2022-09-20T15:22:18.686Z,101417.84
2022-09-20T15:24:45.647Z,101421.88
2022-09-20T15:27:13.666Z,101427.28
2022-09-20T15:29:40.723Z,101425.78
2022-09-20T15:32:10.923Z,101429.41
2022-09-20T15:34:38.217Z,101430.97
2022-09-20T15:37:05.191Z,101436.41
2022-09-20T15:39:32.118Z,101436.91
2022-09-20T15:41:59.069Z,101435.31
2022-09-20T15:44:26.029Z,101438.16
2022-09-20T15:46:53.619Z,101439.81
2022-09-20T15:49:21.648Z,101448.09
2022-09-20T15:51:48.702Z,101447.41
2022-09-20T15:54:15.770Z,101438.19
2022-09-20T15:56:42.878Z,101448.88
2022-09-20T15:59:13.355Z,101444.69
2022-09-20T16:01:45.793Z,101448.25
2022-09-20T16:04:18.568Z,101455.47
2022-09-20T16:06:49.462Z,101460.56
2022-09-20T16:09:18.170Z,101456.34
2022-09-20T16:11:45.882Z,101460.22
2022-09-20T16:14:13.101Z,101451.47
2022-09-20T16:16:40.935Z,101462.28
2022-09-20T16:19:23.802Z,101458.44
2022-09-20T16:21:58.555Z,101460.78
2022-09-20T16:24:33.905Z,101460.16
2022-09-20T16:27:06.031Z,101463.81
2022-09-20T16:29:33.973Z,101455.81
2022-09-20T16:32:05.839Z,101455.16
2022-09-20T16:34:36.300Z,101462.50
2022-09-20T16:37:17.023Z,101456.72
2022-09-20T16:39:44.271Z,101467.00
2022-09-20T16:42:13.244Z,101473.53
2022-09-20T16:44:42.968Z,101461.56
2022-09-20T16:47:22.232Z,101464.38
2022-09-20T16:49:50.589Z,101466.22
2022-09-20T16:52:17.676Z,101463.03
2022-09-20T16:54:44.682Z,101473.19
2022-09-20T16:57:13.305Z,101475.72
2022-09-20T16:59:40.720Z,101483.88
2022-09-20T17:02:12.547Z,101480.56
2022-09-20T17:04:39.780Z,101480.41
2022-09-20T17:07:06.787Z,101489.75
2022-09-20T17:09:33.741Z,101484.50
2022-09-20T17:12:01.286Z,101499.41
2022-09-20T17:14:28.241Z,101494.34
2022-09-20T17:16:56.478Z,101498.56
2022-09-20T17:19:23.438Z,101499.84
2022-09-20T17:21:51.350Z,101504.22
2022-09-20T17:24:21.271Z,101504.06
2022-09-20T17:26:50.712Z,101507.19
2022-09-20T17:29:19.952Z,101513.72
2022-09-20T17:31:55.082Z,101526.97
2022-09-20T17:34:23.380Z,101521.78
2022-09-20T17:36:50.801Z,101529.44
2022-09-20T17:39:18.805Z,101531.72
2022-09-20T17:41:48.866Z,101530.47
2022-09-20T17:44:16.731Z,101529.84
2022-09-20T17:46:48.376Z,101538.00
2022-09-20T17:49:19.311Z,101540.91
2022-09-20T17:51:51.072Z,101546.34
2022-09-20T17:54:19.406Z,101541.41
2022-09-20T17:56:53.410Z,101546.94
2022-09-20T17:59:21.013Z,101552.03
2022-09-20T18:01:51.578Z,101541.16
2022-09-20T18:04:20.861Z,101552.94
2022-09-20T18:06:52.848Z,101564.00
2022-09-20T18:09:25.445Z,101562.50
2022-09-20T18:11:55.479Z,101564.53
2022-09-20T18:14:31.891Z,101566.41
2022-09-20T18:17:03.491Z,101568.66
2022-09-20T18:19:34.147Z,101566.81
2022-09-20T18:22:02.521Z,101568.97
2022-09-20T18:24:30.360Z,101571.75
2022-09-20T18:26:57.426Z,101572.22
2022-09-20T18:29:25.026Z,101575.56
2022-09-20T18:31:54.408Z,101576.69
2022-09-20T18:34:25.476Z,101571.28
2022-09-20T18:36:57.018Z,101577.19
2022-09-20T18:39:28.344Z,101580.16
2022-09-20T18:41:55.476Z,101583.81
2022-09-20T18:44:23.509Z,101582.03
2022-09-20T18:46:53.350Z,101581.06
2022-09-20T18:49:21.588Z,101580.28
2022-09-20T18:51:51.739Z,101588.09
2022-09-20T18:54:19.144Z,101579.94
2022-09-20T18:56:49.644Z,101591.16
2022-09-20T18:59:23.094Z,101588.06
2022-09-20T19:02:30.820Z,101591.78
2022-09-20T19:05:15.231Z,101597.91
2022-09-20T19:08:04.642Z,101596.06
2022-09-20T19:10:57.564Z,101595.75
2022-09-20T19:13:44.946Z,101597.97
2022-09-20T19:16:36.784Z,101599.53
2022-09-20T19:19:52.368Z,101603.28
2022-09-20T19:23:11.785Z,101612.44
2022-09-20T19:25:46.873Z,101602.22
2022-09-20T19:28:16.118Z,101604.53
2022-09-20T19:30:43.873Z,101618.66
2022-09-20T19:33:18.051Z,101607.03
2022-09-20T19:35:51.040Z,101618.81
2022-09-20T19:38:40.499Z,101614.13
2022-09-20T19:41:57.969Z,101620.66
2022-09-20T19:45:07.198Z,101618.28
2022-09-20T19:48:13.127Z,101624.34
2022-09-20T19:50:49.691Z,101628.09
2022-09-20T19:53:22.219Z,101638.41
2022-09-20T19:56:27.731Z,101637.00
2022-09-20T19:58:56.312Z,101639.44
2022-09-20T20:01:26.050Z,101635.75
2022-09-20T20:03:55.756Z,101636.91
2022-09-20T20:06:30.060Z,101642.06
2022-09-20T20:09:39.996Z,101635.69
2022-09-20T20:12:21.494Z,101636.16
2022-09-20T20:15:22.096Z,101650.31
2022-09-20T20:18:16.658Z,101649.63
2022-09-20T20:20:51.232Z,101654.59
2022-09-20T20:24:04.607Z,101652.34
2022-09-20T20:26:32.053Z,101651.22
2022-09-20T20:29:00.007Z,101653.44
2022-09-20T20:31:27.210Z,101660.22
2022-09-20T20:33:54.713Z,101658.22
2022-09-20T20:36:21.809Z,101654.69
2022-09-20T20:38:53.049Z,101661.91
2022-09-20T20:41:21.753Z,101674.22
2022-09-20T20:43:52.695Z,101667.03
2022-09-20T20:46:19.727Z,101667.16
2022-09-20T20:48:49.628Z,101673.88
2022-09-20T20:51:21.513Z,101673.66
2022-09-20T20:53:53.004Z,101675.44
2022-09-20T20:56:27.449Z,101674.28
2022-09-20T20:59:00.417Z,101679.88
2022-09-20T21:01:36.723Z,101682.53
2022-09-20T21:04:06.549Z,101685.44
2022-09-20T21:06:37.142Z,101684.94
2022-09-20T21:09:09.296Z,101692.03
2022-09-20T21:11:44.059Z,101683.44
2022-09-20T21:14:12.879Z,101683.88
2022-09-20T21:16:43.227Z,101685.41
2022-09-20T21:19:15.577Z,101689.19
2022-09-20T21:21:47.154Z,101689.66
2022-09-20T21:24:17.267Z,101693.59
2022-09-20T21:26:48.870Z,101691.25
2022-09-20T21:29:16.816Z,101698.81
2022-09-20T21:31:46.663Z,101698.16
2022-09-20T21:34:16.115Z,101700.63
2022-09-20T21:36:46.882Z,101704.00
2022-09-20T21:39:14.121Z,101705.28
2022-09-20T21:41:41.593Z,101714.13
2022-09-20T21:44:12.085Z,101715.66
2022-09-20T21:46:41.896Z,101718.56
2022-09-20T21:49:12.203Z,101717.50
2022-09-20T21:51:45.049Z,101718.63
2022-09-20T21:54:12.034Z,101719.31
2022-09-20T21:56:41.217Z,101720.78
2022-09-20T21:59:09.327Z,101725.16
2022-09-20T22:01:40.236Z,101726.13
2022-09-20T22:04:12.624Z,101723.56
2022-09-20T22:06:45.141Z,101725.38
2022-09-20T22:09:16.215Z,101730.09
2022-09-20T22:11:47.124Z,101729.13
2022-09-20T22:14:18.477Z,101726.31
2022-09-20T22:16:48.364Z,101738.25
2022-09-20T22:19:18.649Z,101739.09
2022-09-20T22:21:51.370Z,101734.91
2022-09-20T22:24:18.824Z,101728.78
2022-09-20T22:26:50.695Z,101736.81
2022-09-20T22:29:18.301Z,101737.81
2022-09-20T22:31:47.943Z,101732.88
2022-09-20T22:34:21.822Z,101740.75
2022-09-20T22:36:49.415Z,101735.88
2022-09-20T22:39:17.069Z,101731.84
2022-09-20T22:41:44.486Z,101731.06
2022-09-20T22:44:11.725Z,101735.31
2022-09-20T22:46:39.536Z,101734.31
2022-09-20T22:49:08.506Z,101735.75
2022-09-20T22:51:36.765Z,101744.28
2022-09-20T22:54:11.788Z,101745.19
2022-09-20T22:56:42.246Z,101747.47
2022-09-20T22:59:14.257Z,101743.72
2022-09-20T23:01:47.789Z,101734.16
2022-09-20T23:04:23.291Z,101738.91
2022-09-20T23:06:56.204Z,101730.25
2022-09-20T23:09:28.190Z,101742.00
2022-09-20T23:11:55.672Z,101745.19
2022-09-20T23:14:26.767Z,101742.53
2022-09-20T23:16:53.773Z,101740.69
2022-09-20T23:19:20.777Z,101746.16
2022-09-20T23:21:47.752Z,101745.31
2022-09-20T23:24:16.496Z,101740.38
2022-09-20T23:26:44.858Z,101743.59
2022-09-20T23:29:15.796Z,101738.06
2022-09-20T23:31:46.438Z,101744.59
2022-09-20T23:34:15.281Z,101749.63
2022-09-20T23:36:43.321Z,101757.28
2022-09-20T23:39:11.774Z,101749.16
2022-09-20T23:41:39.395Z,101755.13
2022-09-20T23:44:07.480Z,101753.34
2022-09-20T23:46:34.866Z,101750.38
2022-09-20T23:49:02.810Z,101754.47
2022-09-20T23:51:30.804Z,101756.28
2022-09-20T23:53:58.166Z,101758.53
2022-09-20T23:56:25.269Z,101760.34
2022-09-20T23:58:52.532Z,101759.19
